sensor_id;sensor_type;location;lat;lon;timestamp;pressure;altitude;pressure_sealevel;temperature;humidity
6134;BME280;3098;42.678;23.364;2024-03-23T00:54:45;95018.81;;;2.32;65.33
6134;BME280;3098;42.678;23.364;2024-03-23T00:57:12;95020.19;;;2.45;64.05
6134;BME280;3098;42.678;23.364;2024-03-23T00:59:37;95023.66;;;2.56;64.31
6134;BME280;3098;42.678;23.364;2024-03-23T01:02:03;95024.47;;;2.56;64.68
6134;BME280;3098;42.678;23.364;2024-03-23T01:04:28;95020.53;;;2.54;64.71
6134;BME280;3098;42.678;23.364;2024-03-23T01:06:54;95019.53;;;2.60;64.98
6134;BME280;3098;42.678;23.364;2024-03-23T01:09:20;95019.00;;;2.63;65.19
6134;BME280;3098;42.678;23.364;2024-03-23T01:11:46;95019.34;;;2.72;63.66
6134;BME280;3098;42.678;23.364;2024-03-23T01:14:12;95014.88;;;2.67;64.18
6134;BME280;3098;42.678;23.364;2024-03-23T01:16:37;95016.38;;;2.58;64.35
6134;BME280;3098;42.678;23.364;2024-03-23T01:19:03;95005.63;;;2.49;64.73
6134;BME280;3098;42.678;23.364;2024-03-23T01:21:28;95006.34;;;2.45;64.01
6134;BME280;3098;42.678;23.364;2024-03-23T01:23:54;95010.78;;;2.44;64.06
6134;BME280;3098;42.678;23.364;2024-03-23T01:26:20;95023.84;;;2.44;64.58
6134;BME280;3098;42.678;23.364;2024-03-23T01:28:45;95015.16;;;2.33;65.66
6134;BME280;3098;42.678;23.364;2024-03-23T01:31:11;95005.19;;;2.25;64.86
6134;BME280;3098;42.678;23.364;2024-03-23T01:33:37;95009.38;;;2.31;66.11
6134;BME280;3098;42.678;23.364;2024-03-23T01:36:03;95009.34;;;2.26;66.77
6134;BME280;3098;42.678;23.364;2024-03-23T01:38:28;95020.06;;;2.30;65.89
6134;BME280;3098;42.678;23.364;2024-03-23T01:40:57;95018.75;;;2.27;66.87
6134;BME280;3098;42.678;23.364;2024-03-23T01:43:23;95011.69;;;2.23;66.49
6134;BME280;3098;42.678;23.364;2024-03-23T01:45:50;95016.34;;;2.21;66.83
6134;BME280;3098;42.678;23.364;2024-03-23T01:48:17;95008.50;;;2.15;67.28
6134;BME280;3098;42.678;23.364;2024-03-23T01:50:43;95014.50;;;2.16;67.77
6134;BME280;3098;42.678;23.364;2024-03-23T01:53:08;95013.66;;;2.10;67.49
6134;BME280;3098;42.678;23.364;2024-03-23T01:55:34;95009.38;;;1.99;68.06
6134;BME280;3098;42.678;23.364;2024-03-23T01:58:00;95011.19;;;1.99;68.42
6134;BME280;3098;42.678;23.364;2024-03-23T02:00:25;95016.97;;;2.01;67.68
6134;BME280;3098;42.678;23.364;2024-03-23T02:02:53;95017.78;;;2.06;68.46
6134;BME280;3098;42.678;23.364;2024-03-23T02:05:18;95012.88;;;2.10;67.34
6134;BME280;3098;42.678;23.364;2024-03-23T02:07:44;95017.88;;;2.17;67.88
6134;BME280;3098;42.678;23.364;2024-03-23T02:10:10;95022.28;;;2.11;67.62
6134;BME280;3098;42.678;23.364;2024-03-23T02:12:38;95024.50;;;1.97;68.43
6134;BME280;3098;42.678;23.364;2024-03-23T02:15:04;95016.28;;;1.83;69.21
6134;BME280;3098;42.678;23.364;2024-03-23T02:17:31;95024.03;;;1.78;69.08
6134;BME280;3098;42.678;23.364;2024-03-23T02:19:57;95017.63;;;1.64;69.95
6134;BME280;3098;42.678;23.364;2024-03-23T02:22:23;95018.88;;;1.56;69.93
6134;BME280;3098;42.678;23.364;2024-03-23T02:24:48;95026.50;;;1.63;69.13
6134;BME280;3098;42.678;23.364;2024-03-23T02:27:15;95019.91;;;1.82;68.95
6134;BME280;3098;42.678;23.364;2024-03-23T02:29:41;95023.25;;;1.78;68.63
6134;BME280;3098;42.678;23.364;2024-03-23T02:32:06;95020.72;;;1.61;69.13
6134;BME280;3098;42.678;23.364;2024-03-23T02:34:34;95031.47;;;1.91;69.91
6134;BME280;3098;42.678;23.364;2024-03-23T02:37:00;95033.63;;;2.00;69.47
6134;BME280;3098;42.678;23.364;2024-03-23T02:39:25;95030.00;;;2.01;68.66
6134;BME280;3098;42.678;23.364;2024-03-23T02:41:51;95024.22;;;1.99;69.34
6134;BME280;3098;42.678;23.364;2024-03-23T02:44:17;95022.59;;;1.92;68.69
6134;BME280;3098;42.678;23.364;2024-03-23T02:46:42;95018.78;;;1.73;70.24
6134;BME280;3098;42.678;23.364;2024-03-23T02:49:08;95012.91;;;1.83;69.63
6134;BME280;3098;42.678;23.364;2024-03-23T02:51:33;95019.38;;;1.80;69.22
6134;BME280;3098;42.678;23.364;2024-03-23T02:53:59;95016.38;;;1.66;70.55
6134;BME280;3098;42.678;23.364;2024-03-23T02:56:24;95006.44;;;1.63;70.37
6134;BME280;3098;42.678;23.364;2024-03-23T02:58:50;95014.25;;;1.63;69.83
6134;BME280;3098;42.678;23.364;2024-03-23T03:01:17;95010.38;;;1.66;70.07
6134;BME280;3098;42.678;23.364;2024-03-23T03:03:43;95019.09;;;1.77;69.79
6134;BME280;3098;42.678;23.364;2024-03-23T03:06:09;95011.75;;;1.74;69.37
6134;BME280;3098;42.678;23.364;2024-03-23T03:08:35;95011.38;;;1.65;70.35
6134;BME280;3098;42.678;23.364;2024-03-23T03:11:00;95011.91;;;1.62;69.62
6134;BME280;3098;42.678;23.364;2024-03-23T03:13:26;95012.31;;;1.54;71.20
6134;BME280;3098;42.678;23.364;2024-03-23T03:15:52;95013.03;;;1.44;70.59
6134;BME280;3098;42.678;23.364;2024-03-23T03:18:18;95012.72;;;1.40;70.73
6134;BME280;3098;42.678;23.364;2024-03-23T03:20:45;95012.66;;;1.35;71.61
6134;BME280;3098;42.678;23.364;2024-03-23T03:23:11;95019.13;;;1.33;70.91
6134;BME280;3098;42.678;23.364;2024-03-23T03:25:36;95020.41;;;1.30;71.55
6134;BME280;3098;42.678;23.364;2024-03-23T03:28:03;95024.88;;;1.35;71.65
6134;BME280;3098;42.678;23.364;2024-03-23T03:30:29;95021.97;;;1.31;72.24
6134;BME280;3098;42.678;23.364;2024-03-23T03:32:54;95029.06;;;1.36;72.12
6134;BME280;3098;42.678;23.364;2024-03-23T03:35:20;95020.16;;;1.32;71.02
6134;BME280;3098;42.678;23.364;2024-03-23T03:37:46;95020.63;;;1.29;72.19
6134;BME280;3098;42.678;23.364;2024-03-23T03:40:12;95024.03;;;1.29;71.61
6134;BME280;3098;42.678;23.364;2024-03-23T03:42:37;95019.25;;;1.21;72.15
6134;BME280;3098;42.678;23.364;2024-03-23T03:45:04;95020.22;;;1.15;72.30
6134;BME280;3098;42.678;23.364;2024-03-23T03:47:30;95018.91;;;1.12;72.72
6134;BME280;3098;42.678;23.364;2024-03-23T03:49:56;95022.75;;;1.10;71.95
6134;BME280;3098;42.678;23.364;2024-03-23T03:52:21;95018.03;;;1.07;72.27
6134;BME280;3098;42.678;23.364;2024-03-23T03:54:47;95023.97;;;1.02;72.19
6134;BME280;3098;42.678;23.364;2024-03-23T03:57:13;95022.63;;;1.00;72.30
6134;BME280;3098;42.678;23.364;2024-03-23T03:59:39;95024.44;;;0.99;72.64
6134;BME280;3098;42.678;23.364;2024-03-23T04:02:05;95017.47;;;1.05;73.01
6134;BME280;3098;42.678;23.364;2024-03-23T04:04:30;95024.31;;;1.11;72.77
6134;BME280;3098;42.678;23.364;2024-03-23T04:07:02;95021.91;;;1.04;73.63
6134;BME280;3098;42.678;23.364;2024-03-23T04:09:30;95023.88;;;0.97;73.65
6134;BME280;3098;42.678;23.364;2024-03-23T04:11:56;95024.31;;;0.89;72.75
6134;BME280;3098;42.678;23.364;2024-03-23T04:14:21;95028.19;;;0.86;73.07
6134;BME280;3098;42.678;23.364;2024-03-23T04:16:47;95029.28;;;0.74;73.91
6134;BME280;3098;42.678;23.364;2024-03-23T04:19:12;95030.47;;;0.66;73.29
6134;BME280;3098;42.678;23.364;2024-03-23T04:21:38;95027.50;;;0.74;74.53
6134;BME280;3098;42.678;23.364;2024-03-23T04:24:05;95030.25;;;0.84;74.72
6134;BME280;3098;42.678;23.364;2024-03-23T04:26:40;95032.50;;;0.81;74.44
6134;BME280;3098;42.678;23.364;2024-03-23T04:29:06;95031.81;;;0.85;73.59
6134;BME280;3098;42.678;23.364;2024-03-23T04:31:32;95031.50;;;0.82;73.61
6134;BME280;3098;42.678;23.364;2024-03-23T04:34:00;95038.56;;;0.86;73.44
6134;BME280;3098;42.678;23.364;2024-03-23T04:36:25;95034.41;;;0.85;74.10
6134;BME280;3098;42.678;23.364;2024-03-23T04:38:52;95031.09;;;0.90;73.58
6134;BME280;3098;42.678;23.364;2024-03-23T04:41:18;95028.19;;;0.86;73.20
6134;BME280;3098;42.678;23.364;2024-03-23T04:43:44;95039.28;;;0.99;73.73
6134;BME280;3098;42.678;23.364;2024-03-23T04:46:09;95036.47;;;1.05;73.57
6134;BME280;3098;42.678;23.364;2024-03-23T04:48:35;95043.59;;;1.10;72.11
6134;BME280;3098;42.678;23.364;2024-03-23T04:51:01;95044.50;;;1.21;71.90
6134;BME280;3098;42.678;23.364;2024-03-23T04:53:27;95046.19;;;1.32;70.99
6134;BME280;3098;42.678;23.364;2024-03-23T04:55:56;95053.81;;;1.38;72.03
6134;BME280;3098;42.678;23.364;2024-03-23T04:58:24;95050.97;;;1.40;71.25
6134;BME280;3098;42.678;23.364;2024-03-23T05:00:56;95047.69;;;1.50;71.21
6134;BME280;3098;42.678;23.364;2024-03-23T05:03:22;95052.53;;;1.63;70.90
6134;BME280;3098;42.678;23.364;2024-03-23T05:05:48;95057.09;;;1.73;69.35
6134;BME280;3098;42.678;23.364;2024-03-23T05:08:15;95054.59;;;1.83;66.50
6134;BME280;3098;42.678;23.364;2024-03-23T05:10:42;95052.47;;;1.80;67.79
6134;BME280;3098;42.678;23.364;2024-03-23T05:13:07;95045.66;;;1.79;67.03
6134;BME280;3098;42.678;23.364;2024-03-23T05:15:33;95041.84;;;1.86;65.98
6134;BME280;3098;42.678;23.364;2024-03-23T05:17:59;95039.84;;;1.94;65.65
6134;BME280;3098;42.678;23.364;2024-03-23T05:20:25;95044.09;;;2.05;65.56
6134;BME280;3098;42.678;23.364;2024-03-23T05:22:50;95043.56;;;2.03;65.84
6134;BME280;3098;42.678;23.364;2024-03-23T05:25:16;95034.50;;;2.10;64.61
6134;BME280;3098;42.678;23.364;2024-03-23T05:27:41;95035.31;;;2.11;64.39
6134;BME280;3098;42.678;23.364;2024-03-23T05:30:07;95037.25;;;2.26;64.79
6134;BME280;3098;42.678;23.364;2024-03-23T05:32:34;95037.09;;;2.37;64.15
6134;BME280;3098;42.678;23.364;2024-03-23T05:34:59;95042.75;;;2.61;63.18
6134;BME280;3098;42.678;23.364;2024-03-23T05:37:25;95044.34;;;5.26;58.21
6134;BME280;3098;42.678;23.364;2024-03-23T05:39:51;95041.41;;;8.72;46.12
6134;BME280;3098;42.678;23.364;2024-03-23T05:42:18;95049.81;;;11.46;40.82
6134;BME280;3098;42.678;23.364;2024-03-23T05:44:47;95047.78;;;13.69;34.70
6134;BME280;3098;42.678;23.364;2024-03-23T05:47:12;95054.09;;;15.11;31.46
6134;BME280;3098;42.678;23.364;2024-03-23T05:49:40;95042.84;;;16.25;28.19
6134;BME280;3098;42.678;23.364;2024-03-23T05:52:09;95049.38;;;17.83;26.08
6134;BME280;3098;42.678;23.364;2024-03-23T05:54:35;95051.25;;;17.67;26.35
6134;BME280;3098;42.678;23.364;2024-03-23T05:57:02;95041.63;;;16.75;26.69
6134;BME280;3098;42.678;23.364;2024-03-23T05:59:27;95040.88;;;18.68;24.52
6134;BME280;3098;42.678;23.364;2024-03-23T06:01:54;95037.50;;;19.33;22.93
6134;BME280;3098;42.678;23.364;2024-03-23T06:04:20;95050.38;;;19.46;23.03
6134;BME280;3098;42.678;23.364;2024-03-23T06:06:47;95047.53;;;19.59;22.64
6134;BME280;3098;42.678;23.364;2024-03-23T06:09:12;95046.75;;;20.34;21.51
6134;BME280;3098;42.678;23.364;2024-03-23T06:11:38;95044.09;;;21.32;19.97
6134;BME280;3098;42.678;23.364;2024-03-23T06:14:04;95046.53;;;21.07;20.66
6134;BME280;3098;42.678;23.364;2024-03-23T06:16:29;95043.03;;;20.12;21.41
6134;BME280;3098;42.678;23.364;2024-03-23T06:18:56;95039.31;;;19.05;24.45
6134;BME280;3098;42.678;23.364;2024-03-23T06:21:24;95035.16;;;20.00;21.82
6134;BME280;3098;42.678;23.364;2024-03-23T06:23:52;95040.59;;;21.28;20.17
6134;BME280;3098;42.678;23.364;2024-03-23T06:26:18;95045.34;;;21.86;19.76
6134;BME280;3098;42.678;23.364;2024-03-23T06:28:44;95043.50;;;21.97;19.40
6134;BME280;3098;42.678;23.364;2024-03-23T06:31:10;95041.78;;;22.92;18.55
6134;BME280;3098;42.678;23.364;2024-03-23T06:33:36;95039.75;;;22.71;17.67
6134;BME280;3098;42.678;23.364;2024-03-23T06:36:06;95043.97;;;21.17;20.39
6134;BME280;3098;42.678;23.364;2024-03-23T06:38:32;95037.19;;;21.75;19.45
6134;BME280;3098;42.678;23.364;2024-03-23T06:40:58;95039.56;;;22.39;18.91
6134;BME280;3098;42.678;23.364;2024-03-23T06:43:24;95039.13;;;22.96;18.46
6134;BME280;3098;42.678;23.364;2024-03-23T06:45:53;95037.47;;;22.80;18.56
6134;BME280;3098;42.678;23.364;2024-03-23T06:48:19;95041.56;;;22.53;18.81
6134;BME280;3098;42.678;23.364;2024-03-23T06:50:46;95039.22;;;24.17;16.41
6134;BME280;3098;42.678;23.364;2024-03-23T06:53:15;95046.09;;;22.34;19.29
6134;BME280;3098;42.678;23.364;2024-03-23T06:55:41;95042.88;;;22.87;18.64
6134;BME280;3098;42.678;23.364;2024-03-23T06:58:08;95044.50;;;22.92;19.13
6134;BME280;3098;42.678;23.364;2024-03-23T07:00:34;95040.75;;;21.05;20.50
6134;BME280;3098;42.678;23.364;2024-03-23T07:03:00;95043.50;;;22.52;19.34
6134;BME280;3098;42.678;23.364;2024-03-23T07:05:26;95029.94;;;25.42;16.04
6134;BME280;3098;42.678;23.364;2024-03-23T07:07:51;95014.84;;;22.92;18.68
6134;BME280;3098;42.678;23.364;2024-03-23T07:10:18;95038.06;;;23.61;17.78
6134;BME280;3098;42.678;23.364;2024-03-23T07:12:44;95024.38;;;20.83;21.06
6134;BME280;3098;42.678;23.364;2024-03-23T07:15:09;95025.63;;;22.19;20.26
6134;BME280;3098;42.678;23.364;2024-03-23T07:17:35;95025.41;;;22.49;19.43
6134;BME280;3098;42.678;23.364;2024-03-23T07:20:02;95023.25;;;22.83;19.17
6134;BME280;3098;42.678;23.364;2024-03-23T07:22:32;95018.66;;;22.14;19.91
6134;BME280;3098;42.678;23.364;2024-03-23T07:25:01;95018.09;;;22.53;19.80
6134;BME280;3098;42.678;23.364;2024-03-23T07:27:27;95012.94;;;22.16;20.57
6134;BME280;3098;42.678;23.364;2024-03-23T07:29:52;95023.84;;;22.41;19.17
6134;BME280;3098;42.678;23.364;2024-03-23T07:32:18;95010.41;;;22.52;19.51
6134;BME280;3098;42.678;23.364;2024-03-23T07:34:44;95012.69;;;23.69;18.31
6134;BME280;3098;42.678;23.364;2024-03-23T07:37:12;95006.53;;;20.64;21.16
6134;BME280;3098;42.678;23.364;2024-03-23T07:39:37;95004.09;;;21.67;20.77
6134;BME280;3098;42.678;23.364;2024-03-23T07:42:04;95004.09;;;22.15;20.17
6134;BME280;3098;42.678;23.364;2024-03-23T07:44:30;95011.94;;;21.39;20.66
6134;BME280;3098;42.678;23.364;2024-03-23T07:46:56;95000.75;;;19.79;22.30
6134;BME280;3098;42.678;23.364;2024-03-23T07:49:22;95010.47;;;21.45;21.76
6134;BME280;3098;42.678;23.364;2024-03-23T07:51:48;95011.78;;;21.25;21.30
6134;BME280;3098;42.678;23.364;2024-03-23T07:54:13;94997.59;;;23.32;19.42
6134;BME280;3098;42.678;23.364;2024-03-23T07:56:39;94987.00;;;19.58;22.45
6134;BME280;3098;42.678;23.364;2024-03-23T07:59:04;94998.78;;;20.59;22.54
6134;BME280;3098;42.678;23.364;2024-03-23T08:01:30;94995.91;;;20.45;22.15
6134;BME280;3098;42.678;23.364;2024-03-23T08:03:55;94990.81;;;20.66;21.51
6134;BME280;3098;42.678;23.364;2024-03-23T08:06:21;94994.09;;;20.22;22.16
6134;BME280;3098;42.678;23.364;2024-03-23T08:08:51;94992.56;;;21.63;21.23
6134;BME280;3098;42.678;23.364;2024-03-23T08:11:28;94996.16;;;21.37;21.24
6134;BME280;3098;42.678;23.364;2024-03-23T08:13:54;94997.06;;;21.49;21.31
6134;BME280;3098;42.678;23.364;2024-03-23T08:16:21;94998.41;;;20.94;21.07
6134;BME280;3098;42.678;23.364;2024-03-23T08:18:47;94997.50;;;20.80;21.61
6134;BME280;3098;42.678;23.364;2024-03-23T08:21:13;94985.66;;;19.94;22.96
6134;BME280;3098;42.678;23.364;2024-03-23T08:23:39;94991.13;;;20.95;22.54
6134;BME280;3098;42.678;23.364;2024-03-23T08:26:07;94986.38;;;21.18;21.31
6134;BME280;3098;42.678;23.364;2024-03-23T08:28:34;94983.25;;;20.76;21.66
6134;BME280;3098;42.678;23.364;2024-03-23T08:31:13;94979.03;;;19.15;23.67
6134;BME280;3098;42.678;23.364;2024-03-23T08:33:40;94983.31;;;19.92;22.18
6134;BME280;3098;42.678;23.364;2024-03-23T08:36:09;94983.34;;;21.68;21.23
6134;BME280;3098;42.678;23.364;2024-03-23T08:38:37;94973.31;;;20.80;21.17
6134;BME280;3098;42.678;23.364;2024-03-23T08:41:04;94975.41;;;22.48;20.48
6134;BME280;3098;42.678;23.364;2024-03-23T08:43:32;94970.59;;;23.11;18.68
6134;BME280;3098;42.678;23.364;2024-03-23T08:46:08;94957.09;;;24.11;17.82
6134;BME280;3098;42.678;23.364;2024-03-23T08:48:35;94960.69;;;24.89;16.81
6134;BME280;3098;42.678;23.364;2024-03-23T08:51:02;94957.09;;;25.03;17.02
6134;BME280;3098;42.678;23.364;2024-03-23T08:53:29;94966.34;;;25.12;16.73
6134;BME280;3098;42.678;23.364;2024-03-23T08:55:59;94943.66;;;23.25;18.65
6134;BME280;3098;42.678;23.364;2024-03-23T08:58:27;94952.84;;;24.14;17.27
6134;BME280;3098;42.678;23.364;2024-03-23T09:00:54;94945.19;;;24.96;17.07
6134;BME280;3098;42.678;23.364;2024-03-23T09:03:27;94950.59;;;23.94;17.79
6134;BME280;3098;42.678;23.364;2024-03-23T09:05:54;94947.13;;;23.69;18.07
6134;BME280;3098;42.678;23.364;2024-03-23T09:08:21;94936.28;;;24.08;18.04
6134;BME280;3098;42.678;23.364;2024-03-23T09:10:47;94934.66;;;24.25;17.73
6134;BME280;3098;42.678;23.364;2024-03-23T09:13:13;94925.31;;;22.26;19.88
6134;BME280;3098;42.678;23.364;2024-03-23T09:15:50;94916.63;;;21.88;20.06
6134;BME280;3098;42.678;23.364;2024-03-23T09:18:16;94918.03;;;24.48;16.79
6134;BME280;3098;42.678;23.364;2024-03-23T09:20:42;94913.22;;;23.07;19.02
6134;BME280;3098;42.678;23.364;2024-03-23T09:23:08;94910.16;;;23.76;17.42
6134;BME280;3098;42.678;23.364;2024-03-23T09:25:38;94906.31;;;23.45;17.71
6134;BME280;3098;42.678;23.364;2024-03-23T09:28:04;94897.13;;;24.59;17.20
6134;BME280;3098;42.678;23.364;2024-03-23T09:30:32;94902.59;;;24.45;17.23
6134;BME280;3098;42.678;23.364;2024-03-23T09:32:59;94901.84;;;24.37;17.16
6134;BME280;3098;42.678;23.364;2024-03-23T09:35:24;94896.25;;;24.80;16.99
6134;BME280;3098;42.678;23.364;2024-03-23T09:37:50;94895.53;;;24.69;17.20
6134;BME280;3098;42.678;23.364;2024-03-23T09:40:16;94899.53;;;25.06;16.89
6134;BME280;3098;42.678;23.364;2024-03-23T09:42:41;94886.59;;;25.35;16.54
6134;BME280;3098;42.678;23.364;2024-03-23T09:45:19;94875.50;;;25.22;16.67
6134;BME280;3098;42.678;23.364;2024-03-23T09:47:46;94865.44;;;22.82;18.73
6134;BME280;3098;42.678;23.364;2024-03-23T09:50:13;94866.81;;;22.15;20.60
6134;BME280;3098;42.678;23.364;2024-03-23T09:52:40;94860.81;;;23.47;18.82
6134;BME280;3098;42.678;23.364;2024-03-23T09:55:08;94861.19;;;23.67;18.41
6134;BME280;3098;42.678;23.364;2024-03-23T09:57:34;94851.25;;;23.03;19.13
6134;BME280;3098;42.678;23.364;2024-03-23T10:00:01;94848.13;;;23.19;19.08
6134;BME280;3098;42.678;23.364;2024-03-23T10:02:27;94851.13;;;22.53;20.18
6134;BME280;3098;42.678;23.364;2024-03-23T10:04:54;94851.66;;;21.20;21.63
6134;BME280;3098;42.678;23.364;2024-03-23T10:07:21;94835.66;;;20.49;23.38
6134;BME280;3098;42.678;23.364;2024-03-23T10:09:49;94834.88;;;20.86;23.75
6134;BME280;3098;42.678;23.364;2024-03-23T10:12:18;94831.97;;;21.64;20.75
6134;BME280;3098;42.678;23.364;2024-03-23T10:14:44;94828.69;;;21.33;21.95
6134;BME280;3098;42.678;23.364;2024-03-23T10:17:17;94826.75;;;22.00;20.27
6134;BME280;3098;42.678;23.364;2024-03-23T10:19:49;94823.50;;;22.89;19.48
6134;BME280;3098;42.678;23.364;2024-03-23T10:22:20;94823.81;;;22.33;19.73
6134;BME280;3098;42.678;23.364;2024-03-23T10:24:46;94816.00;;;22.10;19.96
6134;BME280;3098;42.678;23.364;2024-03-23T10:27:20;94811.81;;;20.40;19.92
6134;BME280;3098;42.678;23.364;2024-03-23T10:29:49;94807.38;;;19.01;22.92
6134;BME280;3098;42.678;23.364;2024-03-23T10:32:17;94811.13;;;19.49;22.17
6134;BME280;3098;42.678;23.364;2024-03-23T10:34:43;94791.84;;;19.10;23.08
6134;BME280;3098;42.678;23.364;2024-03-23T10:37:09;94797.00;;;20.50;20.43
6134;BME280;3098;42.678;23.364;2024-03-23T10:39:36;94790.16;;;21.81;19.63
6134;BME280;3098;42.678;23.364;2024-03-23T10:42:04;94781.84;;;22.25;19.74
6134;BME280;3098;42.678;23.364;2024-03-23T10:44:31;94769.28;;;20.90;20.81
6134;BME280;3098;42.678;23.364;2024-03-23T10:47:01;94769.44;;;21.12;20.19
6134;BME280;3098;42.678;23.364;2024-03-23T10:49:29;94768.41;;;21.31;20.38
6134;BME280;3098;42.678;23.364;2024-03-23T10:51:57;94755.97;;;21.81;18.44
6134;BME280;3098;42.678;23.364;2024-03-23T10:54:24;94757.06;;;21.62;18.50
6134;BME280;3098;42.678;23.364;2024-03-23T10:56:56;94743.19;;;21.57;19.33
6134;BME280;3098;42.678;23.364;2024-03-23T10:59:24;94736.03;;;22.07;19.09
6134;BME280;3098;42.678;23.364;2024-03-23T11:01:58;94729.72;;;21.46;18.72
6134;BME280;3098;42.678;23.364;2024-03-23T11:04:37;94728.53;;;21.40;19.42
6134;BME280;3098;42.678;23.364;2024-03-23T11:09:50;94719.56;;;19.74;21.63
6134;BME280;3098;42.678;23.364;2024-03-23T11:14:51;94709.28;;;20.24;21.46
6134;BME280;3098;42.678;23.364;2024-03-23T11:17:21;94699.38;;;20.32;20.27
6134;BME280;3098;42.678;23.364;2024-03-23T11:19:54;94693.78;;;19.02;23.56
6134;BME280;3098;42.678;23.364;2024-03-23T11:22:54;94691.75;;;19.22;22.01
6134;BME280;3098;42.678;23.364;2024-03-23T11:27:48;94683.38;;;20.42;20.71
6134;BME280;3098;42.678;23.364;2024-03-23T11:32:46;94679.00;;;20.20;20.54
6134;BME280;3098;42.678;23.364;2024-03-23T11:35:25;94672.38;;;20.55;20.18
6134;BME280;3098;42.678;23.364;2024-03-23T11:40:37;94664.88;;;19.48;21.55
6134;BME280;3098;42.678;23.364;2024-03-23T11:43:04;94654.09;;;19.78;21.51
6134;BME280;3098;42.678;23.364;2024-03-23T11:45:37;94652.63;;;19.14;22.66
6134;BME280;3098;42.678;23.364;2024-03-23T11:48:11;94643.78;;;19.10;22.45
6134;BME280;3098;42.678;23.364;2024-03-23T11:50:40;94639.22;;;19.51;21.52
6134;BME280;3098;42.678;23.364;2024-03-23T11:53:20;94639.97;;;19.48;21.78
6134;BME280;3098;42.678;23.364;2024-03-23T11:55:54;94625.72;;;19.40;21.50
6134;BME280;3098;42.678;23.364;2024-03-23T11:58:21;94621.13;;;19.41;22.60
6134;BME280;3098;42.678;23.364;2024-03-23T12:01:00;94619.41;;;17.85;23.63
6134;BME280;3098;42.678;23.364;2024-03-23T12:03:30;94607.22;;;18.11;23.19
6134;BME280;3098;42.678;23.364;2024-03-23T12:05:59;94605.59;;;18.29;23.42
6134;BME280;3098;42.678;23.364;2024-03-23T12:11:06;94587.25;;;18.88;23.45
6134;BME280;3098;42.678;23.364;2024-03-23T12:13:33;94589.09;;;19.51;22.20
6134;BME280;3098;42.678;23.364;2024-03-23T12:16:17;94577.97;;;19.12;22.35
6134;BME280;3098;42.678;23.364;2024-03-23T12:18:48;94576.03;;;18.75;22.72
6134;BME280;3098;42.678;23.364;2024-03-23T12:21:17;94579.31;;;18.65;22.58
6134;BME280;3098;42.678;23.364;2024-03-23T12:23:44;94574.88;;;18.46;23.05
6134;BME280;3098;42.678;23.364;2024-03-23T12:26:11;94582.34;;;18.33;24.34
6134;BME280;3098;42.678;23.364;2024-03-23T12:28:37;94571.09;;;18.51;23.85
6134;BME280;3098;42.678;23.364;2024-03-23T12:31:03;94574.34;;;18.67;21.98
6134;BME280;3098;42.678;23.364;2024-03-23T12:33:28;94566.59;;;18.85;21.60
6134;BME280;3098;42.678;23.364;2024-03-23T12:35:54;94564.50;;;18.71;20.97
6134;BME280;3098;42.678;23.364;2024-03-23T12:38:20;94562.94;;;18.13;21.80
6134;BME280;3098;42.678;23.364;2024-03-23T12:40:49;94550.81;;;17.70;22.32
6134;BME280;3098;42.678;23.364;2024-03-23T12:43:16;94546.59;;;17.69;22.47
6134;BME280;3098;42.678;23.364;2024-03-23T12:45:49;94545.03;;;16.99;23.84
6134;BME280;3098;42.678;23.364;2024-03-23T12:48:15;94535.56;;;17.05;23.67
6134;BME280;3098;42.678;23.364;2024-03-23T12:50:42;94540.72;;;17.37;23.60
6134;BME280;3098;42.678;23.364;2024-03-23T12:53:08;94533.06;;;17.35;23.02
6134;BME280;3098;42.678;23.364;2024-03-23T12:55:37;94530.34;;;17.32;23.30
6134;BME280;3098;42.678;23.364;2024-03-23T12:58:03;94517.28;;;16.84;23.31
6134;BME280;3098;42.678;23.364;2024-03-23T13:00:29;94514.75;;;16.72;21.58
6134;BME280;3098;42.678;23.364;2024-03-23T13:02:55;94507.84;;;16.90;22.29
6134;BME280;3098;42.678;23.364;2024-03-23T13:05:21;94498.66;;;16.68;22.08
6134;BME280;3098;42.678;23.364;2024-03-23T13:07:47;94501.50;;;16.99;22.50
6134;BME280;3098;42.678;23.364;2024-03-23T13:10:12;94496.72;;;17.54;21.30
6134;BME280;3098;42.678;23.364;2024-03-23T13:12:40;94502.19;;;17.84;21.80
6134;BME280;3098;42.678;23.364;2024-03-23T13:15:05;94495.03;;;17.92;20.99
6134;BME280;3098;42.678;23.364;2024-03-23T13:17:31;94494.75;;;18.00;21.31
6134;BME280;3098;42.678;23.364;2024-03-23T13:19:56;94493.94;;;18.23;20.90
6134;BME280;3098;42.678;23.364;2024-03-23T13:22:22;94494.00;;;18.00;21.50
6134;BME280;3098;42.678;23.364;2024-03-23T13:24:48;94485.44;;;17.87;22.12
6134;BME280;3098;42.678;23.364;2024-03-23T13:27:15;94477.56;;;17.48;21.86
6134;BME280;3098;42.678;23.364;2024-03-23T13:29:41;94482.06;;;17.44;23.01
6134;BME280;3098;42.678;23.364;2024-03-23T13:32:07;94483.22;;;17.70;22.74
6134;BME280;3098;42.678;23.364;2024-03-23T13:34:34;94475.47;;;17.61;22.35
6134;BME280;3098;42.678;23.364;2024-03-23T13:37:00;94476.13;;;17.77;22.48
6134;BME280;3098;42.678;23.364;2024-03-23T13:39:26;94466.88;;;17.48;21.90
6134;BME280;3098;42.678;23.364;2024-03-23T13:41:54;94471.47;;;17.51;21.23
6134;BME280;3098;42.678;23.364;2024-03-23T13:44:21;94468.88;;;17.55;23.10
6134;BME280;3098;42.678;23.364;2024-03-23T13:46:46;94461.00;;;17.62;19.93
6134;BME280;3098;42.678;23.364;2024-03-23T13:49:29;94458.22;;;17.81;18.95
6134;BME280;3098;42.678;23.364;2024-03-23T13:51:57;94455.34;;;17.94;18.74
6134;BME280;3098;42.678;23.364;2024-03-23T13:54:26;94449.69;;;17.99;17.87
6134;BME280;3098;42.678;23.364;2024-03-23T13:56:53;94447.22;;;18.17;17.29
6134;BME280;3098;42.678;23.364;2024-03-23T13:59:22;94435.72;;;18.12;18.25
6134;BME280;3098;42.678;23.364;2024-03-23T14:01:50;94433.63;;;18.29;17.31
6134;BME280;3098;42.678;23.364;2024-03-23T14:04:16;94436.06;;;18.11;18.42
6134;BME280;3098;42.678;23.364;2024-03-23T14:06:42;94445.09;;;17.99;18.12
6134;BME280;3098;42.678;23.364;2024-03-23T14:09:10;94435.78;;;18.16;17.36
6134;BME280;3098;42.678;23.364;2024-03-23T14:11:36;94435.72;;;18.12;17.82
6134;BME280;3098;42.678;23.364;2024-03-23T14:14:03;94430.22;;;17.75;18.09
6134;BME280;3098;42.678;23.364;2024-03-23T14:16:32;94425.72;;;17.53;18.07
6134;BME280;3098;42.678;23.364;2024-03-23T14:18:59;94420.13;;;17.35;18.44
6134;BME280;3098;42.678;23.364;2024-03-23T14:21:25;94416.81;;;17.72;18.38
6134;BME280;3098;42.678;23.364;2024-03-23T14:23:51;94422.94;;;17.99;17.95